Detalii statie COMAGRA BEREGSAU [00001994]

Toti senzorii

Date Temperatura solului [C]Precipitatii [mm]Voltaj baterie [mV]Leaf Wetness [Min]HC Air temperature [C]HC Relative humidity [%]Punctul de roua [C]
medieminmaxsumaultimatimpmedieminmaxmediemediemin
2019-08-15 20:00:00 24.5 24.4 24.6 0 7176 23.14 22.46 23.83 55.41 13.5 12.8
2019-08-15 21:00:00 24.2 24.1 24.4 0 6904 20.75 18.74 22.35 66.21 14 13.6
2019-08-15 22:00:00 23.9 23.8 24.1 0 6816 17.14 15.67 18.38 89.28 15.2 14.6
2019-08-15 23:00:00 23.5 23.3 23.7 0 6806 14.78 14.42 15.34 100 14.7 14.4
2019-08-16 00:00:00 23 22.9 23.2 0 6786 14.09 13.69 14.43 100 14 13.6
2019-08-16 01:00:00 22.6 22.4 22.9 0 6786 13.39 13.04 14.19 100 13.3 13
2019-08-16 02:00:00 22.2 21.9 22.6 0 6786 12.87 12.68 13.2 100 12.8 12.6
2019-08-16 03:00:00 21.8 21.6 22.1 0 6776 12.39 12.11 12.62 100 12.3 12.1
2019-08-16 04:00:00 21.4 21.2 21.7 0 6776 12.27 12.09 12.57 100 12.2 12
2019-08-16 05:00:00 21 21 21.3 0 6766 11.59 10.99 12.39 100 11.5 10.9
2019-08-16 06:00:00 20.7 20.5 21 0 6766 10.67 10.41 11.09 100 10.6 10.4
2019-08-16 07:00:00 20.3 20 20.5 0 6756 10.25 9.82 10.77 100 10.2 9.8
2019-08-16 08:00:00 20.1 19.8 20.2 0 6786 10.88 9.84 12.41 100 10.8 9.8
2019-08-16 09:00:00 19.7 19.7 20.1 0 6854 14.08 12.68 15.38 100 14 12.6
2019-08-16 10:00:00 19.7 19.5 20.1 0 6922 17.28 15.39 18.75 100 17.2 15.3
2019-08-16 11:00:00 19.6 19.5 19.9 0 7000 20.08 18.88 21.16 89.81 18.1 16.8
2019-08-16 12:00:00 19.7 19.5 20.1 0 7196 22.71 21.37 24.62 62.4 14.8 13.5
2019-08-16 13:00:00 19.9 19.7 20.1 0 7196 24.81 24.45 25.72 50.89 13.7 12.4
2019-08-16 14:00:00 20.4 20.2 21 0 7186 25.89 24.34 27.21 44.57 12.7 12.1
2019-08-16 15:00:00 21.5 21 22 0 7166 26.45 25.15 27.63 42.12 12.3 11.6
2019-08-16 16:00:00 22.5 22.1 23.1 0 7186 27.56 25.48 28.52 40.1 12.6 12
2019-08-16 17:00:00 23.4 23 23.7 0 7196 27.35 26.75 28.2 39.49 12.1 11.2
2019-08-16 18:00:00 23.9 23.8 24.1 0 7186 27.37 26.52 28.33 41.35 12.9 12.2
2019-08-16 19:00:00 24.1 24.1 24.3 0 7186 26.71 26.01 27.9 43.28 12.9 12.5
2019-08-16 20:00:00 24.2 24.1 24.3 0 7020 23.71 22.61 26.84 63.86 16.2 13.9
2019-08-16 21:00:00 24 23.9 24.2 0 6854 21.78 20.59 22.67 71.62 16.2 16
2019-08-16 22:00:00 23.7 23.6 24 0 6806 19.51 18.76 20.39 84.5 16.6 16.1
2019-08-16 23:00:00 23.3 23.1 23.6 0 6796 18.03 17.74 18.61 98.7 17.7 17.4
2019-08-17 00:00:00 22.9 22.7 23.2 0 6786 17.29 17.11 17.68 100 17.2 17.1
2019-08-17 01:00:00 22.6 22.4 22.8 0 6786 16.69 16.27 17 100 16.6 16.2
2019-08-17 02:00:00 22.2 22.1 22.4 0 6786 15.95 15.75 16.23 100 15.9 15.7
2019-08-17 03:00:00 21.9 21.8 22.2 0 6776 15.4 15.29 15.65 100 15.3 15.2
2019-08-17 04:00:00 21.6 21.5 21.8 0 6776 15.7 15.59 15.91 100 15.6 15.5
2019-08-17 05:00:00 21.4 21.3 21.5 0 6776 15.89 15.46 16.24 100 15.8 15.4
2019-08-17 06:00:00 21.1 21.1 21.3 0 6766 15.32 15.25 15.4 100 15.2 15.2
2019-08-17 07:00:00 21 20.9 21.1 0 6748 14.92 14.42 15.17 100 14.8 14.4
2019-08-17 08:00:00 20.7 20.6 21 0 6786 14.6 14.26 15.06 100 14.5 14.2
2019-08-17 09:00:00 20.6 20.5 20.9 0 6864 15.72 15.08 16.52 100 15.6 15
2019-08-17 10:00:00 20.5 20.4 20.7 0 6952 18.21 16.72 19.45 100 18.1 16.7
2019-08-17 11:00:00 20.4 20.4 20.7 0 7010 20.47 19.4 21.29 99.83 20.3 19.4
2019-08-17 12:00:00 20.5 20.4 20.7 0 7196 23.03 21.33 24.7 86.01 20.3 19.1
2019-08-17 13:00:00 20.6 20.5 20.8 0 7186 25.58 24.72 26.6 61.34 17.3 16.4
2019-08-17 14:00:00 21.2 20.8 21.8 0 7186 26.82 26.18 28.16 53.7 16.4 15.9
2019-08-17 15:00:00 22.4 21.9 22.9 0 7186 27.89 27.07 28.61 48.35 15.7 15
2019-08-17 16:00:00 23.5 23.1 23.9 0 7186 28.16 27.57 28.65 45.57 15.1 14.7
2019-08-17 17:00:00 24.4 24.1 24.8 0 7186 28.54 27.6 29.39 44.18 14.9 14.3
2019-08-17 18:00:00 25 24.9 25.2 0 7196 28.13 27.52 28.86 43.34 14.2 13.8
2019-08-17 19:00:00 25.2 25.2 25.4 0 7196 27.8 26.85 28.68 44.22 14.2 13.7